Terminal Aerodrome Forecast
Issued by NWS

Home | Current Version | Previous Version | Text Only | Print | Product List | Glossary On
Versions: 1 2 3 4 5 6 7 8 9 10 11 12 13 14 15 16 17 18 19 20 21 22 23
000
FTUS45 KGJT 041739
TAFVEL
TAF
KVEL 041739Z 0418/0518 VRB04KT P6SM SCT110 BKN200
     FM042100 21007KT P6SM SCT100 BKN200
     FM050400 30010KT P6SM BKN150
     FM050900 28008KT P6SM OVC100=

USA.gov is the U.S. government's official web portal to all federal, state and local government web resources and services.